sensor_id;sensor_type;location;lat;lon;timestamp;temperature;humidity
10155;DHT22;5118;48.570;7.916;2023-04-24T00:01:54;11.60;99.90
10155;DHT22;5118;48.570;7.916;2023-04-24T00:04:23;11.70;99.90
10155;DHT22;5118;48.570;7.916;2023-04-24T00:06:53;11.70;99.90
10155;DHT22;5118;48.570;7.916;2023-04-24T00:09:24;11.70;99.90
10155;DHT22;5118;48.570;7.916;2023-04-24T00:11:53;11.70;99.90
10155;DHT22;5118;48.570;7.916;2023-04-24T00:14:23;11.70;99.90
10155;DHT22;5118;48.570;7.916;2023-04-24T00:16:51;11.70;99.90
10155;DHT22;5118;48.570;7.916;2023-04-24T00:19:20;11.70;99.90
10155;DHT22;5118;48.570;7.916;2023-04-24T00:21:49;11.80;99.90
10155;DHT22;5118;48.570;7.916;2023-04-24T00:24:19;11.80;99.90
10155;DHT22;5118;48.570;7.916;2023-04-24T00:26:48;11.80;99.90
10155;DHT22;5118;48.570;7.916;2023-04-24T00:29:17;11.80;99.90
10155;DHT22;5118;48.570;7.916;2023-04-24T00:31:47;11.80;99.90
10155;DHT22;5118;48.570;7.916;2023-04-24T00:34:19;11.80;99.90
10155;DHT22;5118;48.570;7.916;2023-04-24T00:36:48;11.80;99.90
10155;DHT22;5118;48.570;7.916;2023-04-24T00:39:19;11.80;99.90
10155;DHT22;5118;48.570;7.916;2023-04-24T00:41:47;11.80;99.90
10155;DHT22;5118;48.570;7.916;2023-04-24T00:44:17;11.80;99.90
10155;DHT22;5118;48.570;7.916;2023-04-24T00:46:47;11.80;99.90
10155;DHT22;5118;48.570;7.916;2023-04-24T00:49:19;11.80;99.90
10155;DHT22;5118;48.570;7.916;2023-04-24T00:51:47;11.80;99.90
10155;DHT22;5118;48.570;7.916;2023-04-24T00:54:16;11.70;99.90
10155;DHT22;5118;48.570;7.916;2023-04-24T00:56:45;11.70;99.90
10155;DHT22;5118;48.570;7.916;2023-04-24T00:59:16;11.60;99.90
10155;DHT22;5118;48.570;7.916;2023-04-24T01:01:46;11.50;99.90
10155;DHT22;5118;48.570;7.916;2023-04-24T01:04:17;11.50;99.90
10155;DHT22;5118;48.570;7.916;2023-04-24T01:06:48;11.50;99.90
10155;DHT22;5118;48.570;7.916;2023-04-24T01:09:21;11.50;99.90
10155;DHT22;5118;48.570;7.916;2023-04-24T01:11:51;11.50;99.90
10155;DHT22;5118;48.570;7.916;2023-04-24T01:14:20;11.50;99.90
10155;DHT22;5118;48.570;7.916;2023-04-24T01:16:51;11.40;99.90
10155;DHT22;5118;48.570;7.916;2023-04-24T01:19:20;11.40;99.90
10155;DHT22;5118;48.570;7.916;2023-04-24T01:21:50;11.40;99.90
10155;DHT22;5118;48.570;7.916;2023-04-24T01:24:22;11.30;99.90
10155;DHT22;5118;48.570;7.916;2023-04-24T01:26:50;11.20;99.90
10155;DHT22;5118;48.570;7.916;2023-04-24T01:29:18;11.20;99.90
10155;DHT22;5118;48.570;7.916;2023-04-24T01:31:47;11.10;99.90
10155;DHT22;5118;48.570;7.916;2023-04-24T01:34:15;11.10;99.90
10155;DHT22;5118;48.570;7.916;2023-04-24T01:36:45;11.10;99.90
10155;DHT22;5118;48.570;7.916;2023-04-24T01:39:14;11.10;99.90
10155;DHT22;5118;48.570;7.916;2023-04-24T01:41:45;11.00;99.90
10155;DHT22;5118;48.570;7.916;2023-04-24T01:44:13;11.10;99.90
10155;DHT22;5118;48.570;7.916;2023-04-24T01:46:42;11.10;99.90
10155;DHT22;5118;48.570;7.916;2023-04-24T01:49:10;11.00;99.90
10155;DHT22;5118;48.570;7.916;2023-04-24T01:51:39;11.10;99.90
10155;DHT22;5118;48.570;7.916;2023-04-24T01:54:07;11.10;99.90
10155;DHT22;5118;48.570;7.916;2023-04-24T01:56:36;11.20;99.90
10155;DHT22;5118;48.570;7.916;2023-04-24T01:59:11;11.20;99.90
10155;DHT22;5118;48.570;7.916;2023-04-24T02:01:39;11.20;99.90
10155;DHT22;5118;48.570;7.916;2023-04-24T02:04:08;11.20;99.90
10155;DHT22;5118;48.570;7.916;2023-04-24T02:06:37;11.20;99.90
10155;DHT22;5118;48.570;7.916;2023-04-24T02:09:05;11.20;99.90
10155;DHT22;5118;48.570;7.916;2023-04-24T02:11:34;11.10;99.90
10155;DHT22;5118;48.570;7.916;2023-04-24T02:14:02;11.10;99.90
10155;DHT22;5118;48.570;7.916;2023-04-24T02:16:32;11.10;99.90
10155;DHT22;5118;48.570;7.916;2023-04-24T02:19:03;11.00;99.90
10155;DHT22;5118;48.570;7.916;2023-04-24T02:21:31;11.10;99.90
10155;DHT22;5118;48.570;7.916;2023-04-24T02:24:01;11.10;99.90
10155;DHT22;5118;48.570;7.916;2023-04-24T02:26:29;11.10;99.90
10155;DHT22;5118;48.570;7.916;2023-04-24T02:28:58;11.20;99.90
10155;DHT22;5118;48.570;7.916;2023-04-24T02:31:27;11.20;99.90
10155;DHT22;5118;48.570;7.916;2023-04-24T02:33:56;11.20;99.90
10155;DHT22;5118;48.570;7.916;2023-04-24T02:36:25;11.20;99.90
10155;DHT22;5118;48.570;7.916;2023-04-24T02:38:53;11.20;99.90
10155;DHT22;5118;48.570;7.916;2023-04-24T02:41:22;11.20;99.90
10155;DHT22;5118;48.570;7.916;2023-04-24T02:43:50;11.30;99.90
10155;DHT22;5118;48.570;7.916;2023-04-24T02:46:18;11.30;99.90
10155;DHT22;5118;48.570;7.916;2023-04-24T02:48:47;11.30;99.90
10155;DHT22;5118;48.570;7.916;2023-04-24T02:51:17;11.30;99.90
10155;DHT22;5118;48.570;7.916;2023-04-24T02:53:45;11.20;99.90
10155;DHT22;5118;48.570;7.916;2023-04-24T02:56:13;11.10;99.90
10155;DHT22;5118;48.570;7.916;2023-04-24T02:58:42;11.00;99.90
10155;DHT22;5118;48.570;7.916;2023-04-24T03:01:10;10.90;99.90
10155;DHT22;5118;48.570;7.916;2023-04-24T03:03:39;10.90;99.90
10155;DHT22;5118;48.570;7.916;2023-04-24T03:06:08;10.80;99.90
10155;DHT22;5118;48.570;7.916;2023-04-24T03:08:38;10.80;99.90
10155;DHT22;5118;48.570;7.916;2023-04-24T03:11:06;10.80;99.90
10155;DHT22;5118;48.570;7.916;2023-04-24T03:13:34;10.70;99.90
10155;DHT22;5118;48.570;7.916;2023-04-24T03:16:03;10.70;99.90
10155;DHT22;5118;48.570;7.916;2023-04-24T03:18:32;10.70;99.90
10155;DHT22;5118;48.570;7.916;2023-04-24T03:21:00;10.60;99.90
10155;DHT22;5118;48.570;7.916;2023-04-24T03:23:31;10.50;99.90
10155;DHT22;5118;48.570;7.916;2023-04-24T03:26:00;10.40;99.90
10155;DHT22;5118;48.570;7.916;2023-04-24T03:28:30;10.40;99.90
10155;DHT22;5118;48.570;7.916;2023-04-24T03:31:02;10.30;99.90
10155;DHT22;5118;48.570;7.916;2023-04-24T03:33:34;10.40;99.90
10155;DHT22;5118;48.570;7.916;2023-04-24T03:36:04;10.40;99.90
10155;DHT22;5118;48.570;7.916;2023-04-24T03:38:39;10.30;99.90
10155;DHT22;5118;48.570;7.916;2023-04-24T03:41:27;10.30;99.90
10155;DHT22;5118;48.570;7.916;2023-04-24T03:44:16;10.20;99.90
10155;DHT22;5118;48.570;7.916;2023-04-24T03:46:44;10.20;99.90
10155;DHT22;5118;48.570;7.916;2023-04-24T03:49:13;10.10;99.90
10155;DHT22;5118;48.570;7.916;2023-04-24T03:51:43;10.10;99.90
10155;DHT22;5118;48.570;7.916;2023-04-24T03:54:22;10.00;99.90
10155;DHT22;5118;48.570;7.916;2023-04-24T03:56:53;10.00;99.90
10155;DHT22;5118;48.570;7.916;2023-04-24T03:59:23;9.90;99.90
10155;DHT22;5118;48.570;7.916;2023-04-24T04:02:15;9.90;99.90
10155;DHT22;5118;48.570;7.916;2023-04-24T04:04:43;9.80;99.90
10155;DHT22;5118;48.570;7.916;2023-04-24T04:07:12;9.70;99.90
10155;DHT22;5118;48.570;7.916;2023-04-24T04:09:41;9.70;99.90
10155;DHT22;5118;48.570;7.916;2023-04-24T04:12:11;9.60;99.90
10155;DHT22;5118;48.570;7.916;2023-04-24T04:14:40;9.50;99.90
10155;DHT22;5118;48.570;7.916;2023-04-24T04:17:09;9.50;99.90
10155;DHT22;5118;48.570;7.916;2023-04-24T04:19:37;9.40;99.90
10155;DHT22;5118;48.570;7.916;2023-04-24T04:22:05;9.30;99.90
10155;DHT22;5118;48.570;7.916;2023-04-24T04:24:40;9.30;99.90
10155;DHT22;5118;48.570;7.916;2023-04-24T04:27:11;9.20;99.90
10155;DHT22;5118;48.570;7.916;2023-04-24T04:30:02;9.20;99.90
10155;DHT22;5118;48.570;7.916;2023-04-24T04:32:38;9.20;99.90
10155;DHT22;5118;48.570;7.916;2023-04-24T04:35:08;9.20;99.90
10155;DHT22;5118;48.570;7.916;2023-04-24T04:37:36;9.20;99.90
10155;DHT22;5118;48.570;7.916;2023-04-24T04:40:11;9.30;99.90
10155;DHT22;5118;48.570;7.916;2023-04-24T04:42:50;9.30;99.90
10155;DHT22;5118;48.570;7.916;2023-04-24T04:45:20;9.30;99.90
10155;DHT22;5118;48.570;7.916;2023-04-24T04:48:17;9.40;99.90
10155;DHT22;5118;48.570;7.916;2023-04-24T04:50:46;9.40;99.90
10155;DHT22;5118;48.570;7.916;2023-04-24T04:53:15;9.50;99.90
10155;DHT22;5118;48.570;7.916;2023-04-24T04:55:45;9.50;99.90
10155;DHT22;5118;48.570;7.916;2023-04-24T04:58:16;9.60;99.90
10155;DHT22;5118;48.570;7.916;2023-04-24T05:00:46;9.60;99.90
10155;DHT22;5118;48.570;7.916;2023-04-24T05:03:21;9.70;99.90
10155;DHT22;5118;48.570;7.916;2023-04-24T05:05:57;9.70;99.90
10155;DHT22;5118;48.570;7.916;2023-04-24T05:08:25;9.80;99.90
10155;DHT22;5118;48.570;7.916;2023-04-24T05:10:55;9.80;99.90
10155;DHT22;5118;48.570;7.916;2023-04-24T05:13:27;9.80;99.90
10155;DHT22;5118;48.570;7.916;2023-04-24T05:16:17;9.90;99.90
10155;DHT22;5118;48.570;7.916;2023-04-24T05:18:48;9.90;99.90
10155;DHT22;5118;48.570;7.916;2023-04-24T05:21:21;9.90;99.90
10155;DHT22;5118;48.570;7.916;2023-04-24T05:23:51;9.90;99.90
10155;DHT22;5118;48.570;7.916;2023-04-24T05:26:40;10.00;99.90
10155;DHT22;5118;48.570;7.916;2023-04-24T05:29:15;10.00;99.90
10155;DHT22;5118;48.570;7.916;2023-04-24T05:31:46;10.00;99.90
10155;DHT22;5118;48.570;7.916;2023-04-24T05:34:14;10.00;99.90
10155;DHT22;5118;48.570;7.916;2023-04-24T05:36:45;9.90;99.90
10155;DHT22;5118;48.570;7.916;2023-04-24T05:39:14;9.90;99.90
10155;DHT22;5118;48.570;7.916;2023-04-24T05:41:42;9.90;99.90
10155;DHT22;5118;48.570;7.916;2023-04-24T05:44:10;9.90;99.90
10155;DHT22;5118;48.570;7.916;2023-04-24T05:46:40;9.80;99.90
10155;DHT22;5118;48.570;7.916;2023-04-24T05:49:10;9.80;99.90
10155;DHT22;5118;48.570;7.916;2023-04-24T05:51:38;9.80;99.90
10155;DHT22;5118;48.570;7.916;2023-04-24T05:54:07;9.70;99.90
10155;DHT22;5118;48.570;7.916;2023-04-24T05:56:36;9.70;99.90
10155;DHT22;5118;48.570;7.916;2023-04-24T05:59:07;9.80;99.90
10155;DHT22;5118;48.570;7.916;2023-04-24T06:01:36;9.80;99.90
10155;DHT22;5118;48.570;7.916;2023-04-24T06:04:15;9.80;99.90
10155;DHT22;5118;48.570;7.916;2023-04-24T06:06:46;9.80;99.90
10155;DHT22;5118;48.570;7.916;2023-04-24T06:09:18;9.80;99.90
10155;DHT22;5118;48.570;7.916;2023-04-24T06:11:46;9.80;99.90
10155;DHT22;5118;48.570;7.916;2023-04-24T06:14:15;9.70;99.90
10155;DHT22;5118;48.570;7.916;2023-04-24T06:17:12;9.70;99.90
10155;DHT22;5118;48.570;7.916;2023-04-24T06:19:42;9.70;99.90
10155;DHT22;5118;48.570;7.916;2023-04-24T06:22:11;9.60;99.90
10155;DHT22;5118;48.570;7.916;2023-04-24T06:24:40;9.60;99.90
10155;DHT22;5118;48.570;7.916;2023-04-24T06:27:09;9.50;99.90
10155;DHT22;5118;48.570;7.916;2023-04-24T06:29:40;9.50;99.90
10155;DHT22;5118;48.570;7.916;2023-04-24T06:32:09;9.50;99.90
10155;DHT22;5118;48.570;7.916;2023-04-24T06:34:37;9.50;99.90
10155;DHT22;5118;48.570;7.916;2023-04-24T06:37:07;9.50;99.90
10155;DHT22;5118;48.570;7.916;2023-04-24T06:39:35;9.60;99.90
10155;DHT22;5118;48.570;7.916;2023-04-24T06:42:04;9.70;99.90
10155;DHT22;5118;48.570;7.916;2023-04-24T06:44:33;9.80;99.90
10155;DHT22;5118;48.570;7.916;2023-04-24T06:47:08;9.90;99.90
10155;DHT22;5118;48.570;7.916;2023-04-24T06:49:37;10.10;99.90
10155;DHT22;5118;48.570;7.916;2023-04-24T06:52:07;10.30;99.90
10155;DHT22;5118;48.570;7.916;2023-04-24T06:54:36;10.50;99.90
10155;DHT22;5118;48.570;7.916;2023-04-24T06:57:05;10.60;99.90
10155;DHT22;5118;48.570;7.916;2023-04-24T06:59:33;10.90;99.90
10155;DHT22;5118;48.570;7.916;2023-04-24T07:02:02;11.10;99.90
10155;DHT22;5118;48.570;7.916;2023-04-24T07:04:30;11.20;99.90
10155;DHT22;5118;48.570;7.916;2023-04-24T07:07:00;11.40;99.90
10155;DHT22;5118;48.570;7.916;2023-04-24T07:09:30;11.50;99.90
10155;DHT22;5118;48.570;7.916;2023-04-24T07:11:59;11.60;99.90
10155;DHT22;5118;48.570;7.916;2023-04-24T07:14:27;11.70;99.90
10155;DHT22;5118;48.570;7.916;2023-04-24T07:16:56;11.80;99.90
10155;DHT22;5118;48.570;7.916;2023-04-24T07:19:27;11.70;99.90
10155;DHT22;5118;48.570;7.916;2023-04-24T07:21:56;11.60;99.90
10155;DHT22;5118;48.570;7.916;2023-04-24T07:24:25;11.50;99.90
10155;DHT22;5118;48.570;7.916;2023-04-24T07:26:58;11.60;99.90
10155;DHT22;5118;48.570;7.916;2023-04-24T07:29:28;11.50;99.90
10155;DHT22;5118;48.570;7.916;2023-04-24T07:31:56;11.50;99.90
10155;DHT22;5118;48.570;7.916;2023-04-24T07:34:24;11.40;99.90
10155;DHT22;5118;48.570;7.916;2023-04-24T07:36:53;11.20;99.90
10155;DHT22;5118;48.570;7.916;2023-04-24T07:39:21;11.10;99.90
10155;DHT22;5118;48.570;7.916;2023-04-24T07:41:49;10.90;99.90
10155;DHT22;5118;48.570;7.916;2023-04-24T07:44:19;10.90;99.90
10155;DHT22;5118;48.570;7.916;2023-04-24T07:46:48;10.80;99.90
10155;DHT22;5118;48.570;7.916;2023-04-24T07:49:17;10.80;99.90
10155;DHT22;5118;48.570;7.916;2023-04-24T07:51:46;10.80;99.90
10155;DHT22;5118;48.570;7.916;2023-04-24T07:54:17;10.90;99.90
10155;DHT22;5118;48.570;7.916;2023-04-24T07:56:45;11.00;99.90
10155;DHT22;5118;48.570;7.916;2023-04-24T07:59:14;11.00;99.90
10155;DHT22;5118;48.570;7.916;2023-04-24T08:01:43;11.00;99.90
10155;DHT22;5118;48.570;7.916;2023-04-24T08:04:12;11.00;99.90
10155;DHT22;5118;48.570;7.916;2023-04-24T08:06:41;11.00;99.90
10155;DHT22;5118;48.570;7.916;2023-04-24T08:09:09;11.10;99.90
10155;DHT22;5118;48.570;7.916;2023-04-24T08:11:37;11.20;99.90
10155;DHT22;5118;48.570;7.916;2023-04-24T08:14:06;11.20;99.90
10155;DHT22;5118;48.570;7.916;2023-04-24T08:16:35;11.20;99.90
10155;DHT22;5118;48.570;7.916;2023-04-24T08:19:05;11.20;99.90
10155;DHT22;5118;48.570;7.916;2023-04-24T08:21:33;11.20;99.90
10155;DHT22;5118;48.570;7.916;2023-04-24T08:24:02;11.20;99.90
10155;DHT22;5118;48.570;7.916;2023-04-24T08:26:32;11.40;99.90
10155;DHT22;5118;48.570;7.916;2023-04-24T08:29:00;11.50;99.90
10155;DHT22;5118;48.570;7.916;2023-04-24T08:31:29;11.40;99.90
10155;DHT22;5118;48.570;7.916;2023-04-24T08:33:57;11.30;99.90
10155;DHT22;5118;48.570;7.916;2023-04-24T08:36:28;11.20;99.90
10155;DHT22;5118;48.570;7.916;2023-04-24T08:39:12;11.30;99.90
10155;DHT22;5118;48.570;7.916;2023-04-24T08:41:42;11.40;99.90
10155;DHT22;5118;48.570;7.916;2023-04-24T08:44:12;11.60;99.90
10155;DHT22;5118;48.570;7.916;2023-04-24T08:46:43;11.60;99.90
10155;DHT22;5118;48.570;7.916;2023-04-24T08:49:13;11.50;99.90
10155;DHT22;5118;48.570;7.916;2023-04-24T08:51:44;11.40;99.90
10155;DHT22;5118;48.570;7.916;2023-04-24T08:54:14;11.50;99.90
10155;DHT22;5118;48.570;7.916;2023-04-24T08:56:44;11.60;99.90
10155;DHT22;5118;48.570;7.916;2023-04-24T08:59:13;11.70;99.90
10155;DHT22;5118;48.570;7.916;2023-04-24T09:01:43;11.70;99.90
10155;DHT22;5118;48.570;7.916;2023-04-24T09:04:14;11.70;99.90
10155;DHT22;5118;48.570;7.916;2023-04-24T09:06:51;11.70;99.90
10155;DHT22;5118;48.570;7.916;2023-04-24T09:09:20;11.70;99.90
10155;DHT22;5118;48.570;7.916;2023-04-24T09:11:49;11.70;99.90
10155;DHT22;5118;48.570;7.916;2023-04-24T09:14:19;11.70;99.90
10155;DHT22;5118;48.570;7.916;2023-04-24T09:16:49;11.70;99.90
10155;DHT22;5118;48.570;7.916;2023-04-24T09:19:17;11.80;99.90
10155;DHT22;5118;48.570;7.916;2023-04-24T09:21:46;11.80;99.90
10155;DHT22;5118;48.570;7.916;2023-04-24T09:24:17;11.80;99.90
10155;DHT22;5118;48.570;7.916;2023-04-24T09:26:48;11.70;99.90
10155;DHT22;5118;48.570;7.916;2023-04-24T09:29:18;11.80;99.90
10155;DHT22;5118;48.570;7.916;2023-04-24T09:31:46;11.90;99.90
10155;DHT22;5118;48.570;7.916;2023-04-24T09:34:18;12.10;99.90
10155;DHT22;5118;48.570;7.916;2023-04-24T09:36:49;12.40;99.90
10155;DHT22;5118;48.570;7.916;2023-04-24T09:39:18;12.50;99.90
10155;DHT22;5118;48.570;7.916;2023-04-24T09:41:49;12.40;99.90
10155;DHT22;5118;48.570;7.916;2023-04-24T09:44:19;12.30;99.90
10155;DHT22;5118;48.570;7.916;2023-04-24T09:46:50;12.20;99.90
10155;DHT22;5118;48.570;7.916;2023-04-24T09:49:22;12.00;99.90
10155;DHT22;5118;48.570;7.916;2023-04-24T09:51:51;11.80;99.90
10155;DHT22;5118;48.570;7.916;2023-04-24T09:54:21;11.60;99.90
10155;DHT22;5118;48.570;7.916;2023-04-24T09:56:51;11.50;99.90
10155;DHT22;5118;48.570;7.916;2023-04-24T09:59:19;11.50;99.90
10155;DHT22;5118;48.570;7.916;2023-04-24T10:01:48;11.60;99.90
10155;DHT22;5118;48.570;7.916;2023-04-24T10:04:18;11.80;99.90
10155;DHT22;5118;48.570;7.916;2023-04-24T10:06:48;11.90;99.90
10155;DHT22;5118;48.570;7.916;2023-04-24T10:09:18;12.30;99.90
10155;DHT22;5118;48.570;7.916;2023-04-24T10:11:49;12.50;99.90
10155;DHT22;5118;48.570;7.916;2023-04-24T10:14:19;12.60;99.90
10155;DHT22;5118;48.570;7.916;2023-04-24T10:16:49;12.70;99.90
10155;DHT22;5118;48.570;7.916;2023-04-24T10:19:18;12.70;99.90
10155;DHT22;5118;48.570;7.916;2023-04-24T10:21:47;12.80;99.90
10155;DHT22;5118;48.570;7.916;2023-04-24T10:24:16;13.00;99.90
10155;DHT22;5118;48.570;7.916;2023-04-24T10:26:46;13.30;99.90
10155;DHT22;5118;48.570;7.916;2023-04-24T10:29:18;13.30;99.90
10155;DHT22;5118;48.570;7.916;2023-04-24T10:31:48;13.30;99.90
10155;DHT22;5118;48.570;7.916;2023-04-24T10:34:17;13.30;99.90
10155;DHT22;5118;48.570;7.916;2023-04-24T10:36:50;13.30;99.90
10155;DHT22;5118;48.570;7.916;2023-04-24T10:39:21;13.40;99.90
10155;DHT22;5118;48.570;7.916;2023-04-24T10:41:54;13.60;99.90
10155;DHT22;5118;48.570;7.916;2023-04-24T10:44:36;13.60;99.90
10155;DHT22;5118;48.570;7.916;2023-04-24T10:47:04;13.70;99.90
10155;DHT22;5118;48.570;7.916;2023-04-24T10:49:33;13.70;99.90
10155;DHT22;5118;48.570;7.916;2023-04-24T10:52:03;13.50;99.90
10155;DHT22;5118;48.570;7.916;2023-04-24T10:54:35;13.40;99.90
10155;DHT22;5118;48.570;7.916;2023-04-24T10:57:28;13.30;99.90
10155;DHT22;5118;48.570;7.916;2023-04-24T11:00:15;13.20;99.90
10155;DHT22;5118;48.570;7.916;2023-04-24T11:02:46;13.00;99.90
10155;DHT22;5118;48.570;7.916;2023-04-24T11:05:18;13.30;99.90
10155;DHT22;5118;48.570;7.916;2023-04-24T11:08:10;13.40;99.90
10155;DHT22;5118;48.570;7.916;2023-04-24T11:10:44;13.70;99.90
10155;DHT22;5118;48.570;7.916;2023-04-24T11:13:15;14.20;99.90
10155;DHT22;5118;48.570;7.916;2023-04-24T11:15:45;14.50;99.90
10155;DHT22;5118;48.570;7.916;2023-04-24T11:18:40;14.80;99.90
10155;DHT22;5118;48.570;7.916;2023-04-24T11:21:12;15.00;99.90
10155;DHT22;5118;48.570;7.916;2023-04-24T11:23:41;15.20;99.90
10155;DHT22;5118;48.570;7.916;2023-04-24T11:26:10;15.20;99.90
10155;DHT22;5118;48.570;7.916;2023-04-24T11:28:44;15.30;99.90
10155;DHT22;5118;48.570;7.916;2023-04-24T11:31:36;15.60;99.90
10155;DHT22;5118;48.570;7.916;2023-04-24T11:34:13;15.60;99.90
10155;DHT22;5118;48.570;7.916;2023-04-24T11:36:43;15.60;99.90
10155;DHT22;5118;48.570;7.916;2023-04-24T11:39:12;15.40;99.90
10155;DHT22;5118;48.570;7.916;2023-04-24T11:41:40;15.10;99.90
10155;DHT22;5118;48.570;7.916;2023-04-24T11:44:09;14.60;99.90
10155;DHT22;5118;48.570;7.916;2023-04-24T11:46:39;14.20;99.90
10155;DHT22;5118;48.570;7.916;2023-04-24T11:49:08;13.90;99.90
10155;DHT22;5118;48.570;7.916;2023-04-24T11:51:36;13.60;99.90
10155;DHT22;5118;48.570;7.916;2023-04-24T11:54:19;13.40;99.90
10155;DHT22;5118;48.570;7.916;2023-04-24T11:56:49;13.20;99.90
10155;DHT22;5118;48.570;7.916;2023-04-24T11:59:17;13.10;99.90
10155;DHT22;5118;48.570;7.916;2023-04-24T12:01:48;13.00;99.90
10155;DHT22;5118;48.570;7.916;2023-04-24T12:04:18;12.90;99.90
10155;DHT22;5118;48.570;7.916;2023-04-24T12:07:02;12.80;99.90
10155;DHT22;5118;48.570;7.916;2023-04-24T12:09:40;12.80;99.90
10155;DHT22;5118;48.570;7.916;2023-04-24T12:12:11;12.90;99.90
10155;DHT22;5118;48.570;7.916;2023-04-24T12:14:43;13.00;99.90
10155;DHT22;5118;48.570;7.916;2023-04-24T12:17:13;13.10;99.90
10155;DHT22;5118;48.570;7.916;2023-04-24T12:19:47;13.20;99.90
10155;DHT22;5118;48.570;7.916;2023-04-24T12:22:17;13.10;99.90
10155;DHT22;5118;48.570;7.916;2023-04-24T12:24:59;13.10;99.90
10155;DHT22;5118;48.570;7.916;2023-04-24T12:27:30;13.20;99.90
10155;DHT22;5118;48.570;7.916;2023-04-24T12:30:01;13.30;99.90
10155;DHT22;5118;48.570;7.916;2023-04-24T12:32:31;13.40;99.90
10155;DHT22;5118;48.570;7.916;2023-04-24T12:35:00;13.30;99.90
10155;DHT22;5118;48.570;7.916;2023-04-24T12:37:33;13.30;99.90
10155;DHT22;5118;48.570;7.916;2023-04-24T12:40:05;13.30;99.90
10155;DHT22;5118;48.570;7.916;2023-04-24T12:42:35;13.40;99.90
10155;DHT22;5118;48.570;7.916;2023-04-24T12:45:06;13.30;99.90
10155;DHT22;5118;48.570;7.916;2023-04-24T12:47:36;13.30;99.90
10155;DHT22;5118;48.570;7.916;2023-04-24T12:50:05;13.20;99.90
10155;DHT22;5118;48.570;7.916;2023-04-24T12:52:34;13.10;99.90
10155;DHT22;5118;48.570;7.916;2023-04-24T12:55:03;13.20;99.90
10155;DHT22;5118;48.570;7.916;2023-04-24T12:57:31;13.10;99.90
10155;DHT22;5118;48.570;7.916;2023-04-24T13:00:00;13.20;99.90
10155;DHT22;5118;48.570;7.916;2023-04-24T13:02:29;13.10;99.90
10155;DHT22;5118;48.570;7.916;2023-04-24T13:05:00;13.10;99.90
10155;DHT22;5118;48.570;7.916;2023-04-24T13:07:31;13.10;99.90
10155;DHT22;5118;48.570;7.916;2023-04-24T13:10:00;13.00;99.90
10155;DHT22;5118;48.570;7.916;2023-04-24T13:12:28;13.00;99.90
10155;DHT22;5118;48.570;7.916;2023-04-24T13:14:58;12.90;99.90
10155;DHT22;5118;48.570;7.916;2023-04-24T13:17:27;12.90;99.90
10155;DHT22;5118;48.570;7.916;2023-04-24T13:19:55;12.90;99.90
10155;DHT22;5118;48.570;7.916;2023-04-24T13:22:25;12.70;99.90
10155;DHT22;5118;48.570;7.916;2023-04-24T13:24:54;12.60;99.90
10155;DHT22;5118;48.570;7.916;2023-04-24T13:27:23;12.50;99.90
10155;DHT22;5118;48.570;7.916;2023-04-24T13:29:52;12.30;99.90
10155;DHT22;5118;48.570;7.916;2023-04-24T13:32:23;12.20;99.90
10155;DHT22;5118;48.570;7.916;2023-04-24T13:34:52;12.10;99.90
10155;DHT22;5118;48.570;7.916;2023-04-24T13:37:20;12.10;99.90
10155;DHT22;5118;48.570;7.916;2023-04-24T13:39:51;12.20;99.90
10155;DHT22;5118;48.570;7.916;2023-04-24T13:42:22;12.30;99.90
10155;DHT22;5118;48.570;7.916;2023-04-24T13:44:51;12.50;99.90
10155;DHT22;5118;48.570;7.916;2023-04-24T13:47:21;12.60;99.90
10155;DHT22;5118;48.570;7.916;2023-04-24T13:49:49;12.80;99.90
10155;DHT22;5118;48.570;7.916;2023-04-24T13:52:18;13.00;99.90
10155;DHT22;5118;48.570;7.916;2023-04-24T13:54:46;13.30;99.90
10155;DHT22;5118;48.570;7.916;2023-04-24T13:57:16;13.50;99.90
10155;DHT22;5118;48.570;7.916;2023-04-24T13:59:45;14.00;99.90
10155;DHT22;5118;48.570;7.916;2023-04-24T14:02:13;14.50;99.90
10155;DHT22;5118;48.570;7.916;2023-04-24T14:04:42;15.10;99.90
10155;DHT22;5118;48.570;7.916;2023-04-24T14:07:11;15.70;99.90
10155;DHT22;5118;48.570;7.916;2023-04-24T14:09:39;16.20;99.90
10155;DHT22;5118;48.570;7.916;2023-04-24T14:12:07;16.50;99.90
10155;DHT22;5118;48.570;7.916;2023-04-24T14:14:37;16.70;99.90
10155;DHT22;5118;48.570;7.916;2023-04-24T14:17:05;16.70;99.90
10155;DHT22;5118;48.570;7.916;2023-04-24T14:19:34;16.90;99.90
10155;DHT22;5118;48.570;7.916;2023-04-24T14:22:02;17.10;99.90
10155;DHT22;5118;48.570;7.916;2023-04-24T14:24:30;17.40;99.90
10155;DHT22;5118;48.570;7.916;2023-04-24T14:26:59;17.50;99.90
10155;DHT22;5118;48.570;7.916;2023-04-24T14:29:28;17.30;99.60
10155;DHT22;5118;48.570;7.916;2023-04-24T14:31:58;17.40;99.90
10155;DHT22;5118;48.570;7.916;2023-04-24T14:34:26;17.10;97.50
10155;DHT22;5118;48.570;7.916;2023-04-24T14:36:55;17.30;97.70
10155;DHT22;5118;48.570;7.916;2023-04-24T14:39:24;17.10;97.40
10155;DHT22;5118;48.570;7.916;2023-04-24T14:41:52;16.80;96.20
10155;DHT22;5118;48.570;7.916;2023-04-24T14:44:21;16.50;96.80
10155;DHT22;5118;48.570;7.916;2023-04-24T14:46:50;15.90;97.10
10155;DHT22;5118;48.570;7.916;2023-04-24T14:49:20;15.70;97.40
10155;DHT22;5118;48.570;7.916;2023-04-24T14:51:48;15.40;97.40
10155;DHT22;5118;48.570;7.916;2023-04-24T14:54:16;15.00;97.50
10155;DHT22;5118;48.570;7.916;2023-04-24T14:56:45;14.90;98.20
10155;DHT22;5118;48.570;7.916;2023-04-24T14:59:14;14.80;98.30
10155;DHT22;5118;48.570;7.916;2023-04-24T15:01:42;14.50;97.90
10155;DHT22;5118;48.570;7.916;2023-04-24T15:04:10;14.50;98.80
10155;DHT22;5118;48.570;7.916;2023-04-24T15:06:40;14.60;99.50
10155;DHT22;5118;48.570;7.916;2023-04-24T15:09:09;14.80;99.90
10155;DHT22;5118;48.570;7.916;2023-04-24T15:11:37;14.90;99.90
10155;DHT22;5118;48.570;7.916;2023-04-24T15:14:05;14.80;99.90
10155;DHT22;5118;48.570;7.916;2023-04-24T15:16:36;15.00;99.90
10155;DHT22;5118;48.570;7.916;2023-04-24T15:19:04;15.30;99.90
10155;DHT22;5118;48.570;7.916;2023-04-24T15:21:33;15.50;99.90
10155;DHT22;5118;48.570;7.916;2023-04-24T15:24:03;15.90;99.90
10155;DHT22;5118;48.570;7.916;2023-04-24T15:26:32;17.10;99.90
10155;DHT22;5118;48.570;7.916;2023-04-24T15:29:00;18.90;99.90
10155;DHT22;5118;48.570;7.916;2023-04-24T15:31:29;20.70;99.90
10155;DHT22;5118;48.570;7.916;2023-04-24T15:33:57;21.80;97.20
10155;DHT22;5118;48.570;7.916;2023-04-24T15:36:26;21.90;95.10
10155;DHT22;5118;48.570;7.916;2023-04-24T15:38:54;21.00;92.80
10155;DHT22;5118;48.570;7.916;2023-04-24T15:41:24;20.00;93.10
10155;DHT22;5118;48.570;7.916;2023-04-24T15:43:52;19.00;93.50
10155;DHT22;5118;48.570;7.916;2023-04-24T15:46:20;18.50;93.60
10155;DHT22;5118;48.570;7.916;2023-04-24T15:48:48;18.00;94.20
10155;DHT22;5118;48.570;7.916;2023-04-24T15:51:17;17.70;94.60
10155;DHT22;5118;48.570;7.916;2023-04-24T15:53:45;17.30;95.10
10155;DHT22;5118;48.570;7.916;2023-04-24T15:56:14;17.10;95.50
10155;DHT22;5118;48.570;7.916;2023-04-24T15:58:44;16.90;95.90
10155;DHT22;5118;48.570;7.916;2023-04-24T16:01:13;16.70;96.00
10155;DHT22;5118;48.570;7.916;2023-04-24T16:03:41;16.40;96.50
10155;DHT22;5118;48.570;7.916;2023-04-24T16:06:11;16.30;96.80
10155;DHT22;5118;48.570;7.916;2023-04-24T16:08:40;15.90;97.40